H.m. Hidalgo — WDB3867 — position and weather

sailwx.info

Track history (hours):
 
Tides and Currents Weather Stations Pressure Air Temp Water Temp Dewpoint Dewpoint Depression Visibility Wind Speed Wind Dir Waves Ship Positions

H.m. Hidalgo

Owner: PACIFIC TUGBOAT SERVICE INC, SAN DIEGO, CA. More information available from US FCC via Universal Licensing System and Coast Guard Vessel Documentation Center.

Last reported at 2018-Feb-25 00:00 UTC. Time now 2018-Feb-25 00:01 UTC.
Position N 34°09' W 119°12'.

Length 25 m; draft 4 m.

Type: Tow > 200 m length. MMSI: 366892180.

Date/timePositionNaut miles runAvg speedWind from/ knotsBaromVisibWave heightAir tempDewpointWater temp
2018-Feb-25 00:00N 34°09' W 119°12'0 0.1
2018-Feb-24 23:29N 34°09' W 119°12'1 2.6
2018-Feb-24 23:00N 34°08' W 119°13'3 7.1
2018-Feb-24 22:30N 34°05' W 119°14'4 8.5
2018-Feb-24 22:00N 34°00' W 119°14'4 8.3
2018-Feb-24 21:30N 33°56' W 119°14'4 8.5
2018-Feb-24 21:00N 33°52' W 119°15'4 8.8
2018-Feb-24 20:30N 33°48' W 119°15'5 9.0
2018-Feb-24 20:00N 33°43' W 119°15'4 7.9
2018-Feb-24 19:31N 33°39' W 119°16'2 3.1
2018-Feb-24 19:00N 33°38' W 119°15'0 0.4
2018-Feb-24 18:30N 33°38' W 119°15'0 0.3
2018-Feb-24 18:00N 33°38' W 119°15'0 0.1
2018-Feb-24 17:30N 33°38' W 119°15'0 0.4
2018-Feb-24 17:00N 33°38' W 119°15'0 1.0
2018-Feb-24 16:30N 33°38' W 119°16'1 1.3
2018-Feb-24 15:55N 33°38' W 119°17'0 0.9
2018-Feb-24 15:27N 33°38' W 119°16'0 1.0
2018-Feb-24 15:00N 33°38' W 119°16'2 4.3
2018-Feb-24 14:26N 33°36' W 119°13'2 5.0
2018-Feb-24 14:00N 33°38' W 119°15'3 5.1
2018-Feb-24 13:30N 33°39' W 119°18'3 4.7
2018-Feb-24 12:56N 33°42' W 119°19'2 5.6
2018-Feb-24 12:30N 33°44' W 119°19'3 5.8
2018-Feb-24 12:00N 33°47' W 119°18'3 5.9
2018-Feb-24 11:30N 33°50' W 119°17'3 6.0
2018-Feb-24 11:00N 33°53' W 119°17'3 5.9
2018-Feb-24 10:30N 33°56' W 119°16'3 5.8
2018-Feb-24 10:00N 33°58' W 119°16'3 5.7
2018-Feb-24 09:30N 34°01' W 119°15'3 6.7
2018-Feb-24 09:00N 34°05' W 119°15'4 7.1
2018-Feb-24 08:30N 34°08' W 119°13'1 2.7
2018-Feb-24 08:00N 34°09' W 119°12'0 0.0
2018-Feb-24 07:29N 34°09' W 119°12'0 0.0
2018-Feb-24 06:57N 34°09' W 119°12'0 0.0
2018-Feb-24 06:30N 34°09' W 119°12'0 0.0
2018-Feb-24 06:00N 34°09' W 119°12'0 0.0
2018-Feb-24 05:29N 34°09' W 119°12'0 0.0
2018-Feb-24 04:56N 34°09' W 119°12'0 0.0
2018-Feb-24 04:22N 34°09' W 119°12'0 0.0
2018-Feb-24 03:59N 34°09' W 119°12'0 0.0
2018-Feb-24 03:30N 34°09' W 119°12'0 0.0
2018-Feb-24 02:58N 34°09' W 119°12'0 0.0
2018-Feb-24 02:29N 34°09' W 119°12'0 0.0
2018-Feb-24 01:59N 34°09' W 119°12'0 0.0
2018-Feb-24 01:28N 34°09' W 119°12'0 0.0
2018-Feb-24 00:58N 34°09' W 119°12'0 0.0
2018-Feb-24 00:27N 34°09' W 119°12'0 0.0
2018-Feb-24 00:00N 34°09' W 119°12'0 0.0
2018-Feb-23 23:30N 34°09' W 119°12'0 0.0
2018-Feb-23 22:59N 34°09' W 119°12'0 0.0
2018-Feb-23 22:29N 34°09' W 119°12'0 0.0
2018-Feb-23 21:57N 34°09' W 119°12'0 0.0
2018-Feb-23 21:30N 34°09' W 119°12'0 0.0
2018-Feb-23 20:53N 34°09' W 119°12'0 0.0
2018-Feb-23 20:30N 34°09' W 119°12'0 0.0
2018-Feb-23 20:00N 34°09' W 119°12'0 0.0
2018-Feb-23 19:30N 34°09' W 119°12'0 0.0
2018-Feb-23 19:00N 34°09' W 119°12'0 0.0
2018-Feb-23 18:30N 34°09' W 119°12'0 0.0
2018-Feb-23 18:00N 34°09' W 119°12'0 0.0
2018-Feb-23 17:30N 34°09' W 119°12'0 0.1
2018-Feb-23 16:59N 34°09' W 119°12'0 0.1
2018-Feb-23 16:30N 34°09' W 119°12'0 0.0
2018-Feb-23 15:55N 34°09' W 119°12'0 0.0
2018-Feb-23 15:25N 34°09' W 119°12'0 0.1
2018-Feb-23 14:59N 34°09' W 119°12'0 0.0
2018-Feb-23 14:30N 34°09' W 119°12'0 0.0
2018-Feb-23 13:55N 34°09' W 119°12'0 0.0
2018-Feb-23 13:28N 34°09' W 119°12'0 0.0
2018-Feb-23 12:59N 34°09' W 119°12'0 0.0
2018-Feb-23 12:28N 34°09' W 119°12'0 0.0
2018-Feb-23 12:00N 34°09' W 119°12'0 0.0
2018-Feb-23 11:27N 34°09' W 119°12'0 0.0
2018-Feb-23 11:00N 34°09' W 119°12'0 0.0
2018-Feb-23 10:30N 34°09' W 119°12'0 0.0
2018-Feb-23 10:00N 34°09' W 119°12'0 0.0
2018-Feb-23 09:30N 34°09' W 119°12'0 0.0
2018-Feb-23 09:00N 34°09' W 119°12'0 0.0
2018-Feb-23 08:29N 34°09' W 119°12'0 0.0
2018-Feb-23 07:59N 34°09' W 119°12'0 0.0
2018-Feb-23 07:30N 34°09' W 119°12'0 0.0
2018-Feb-23 07:00N 34°09' W 119°12'0 0.0
2018-Feb-23 06:27N 34°09' W 119°12'0 0.0
2018-Feb-23 05:57N 34°09' W 119°12'0 0.0
2018-Feb-23 05:30N 34°09' W 119°12'0 0.0
2018-Feb-23 05:00N 34°09' W 119°12'0 0.0
2018-Feb-23 04:28N 34°09' W 119°12'0 0.0
2018-Feb-23 03:53N 34°09' W 119°12'0 0.0
2018-Feb-23 03:30N 34°09' W 119°12'0 0.0
2018-Feb-23 02:58N 34°09' W 119°12'0 0.0
2018-Feb-23 02:28N 34°09' W 119°12'0 0.0
2018-Feb-23 01:56N 34°09' W 119°12'0 0.0
2018-Feb-23 01:28N 34°09' W 119°12'0 0.0
2018-Feb-23 00:59N 34°09' W 119°12'0 0.0
2018-Feb-23 00:30N 34°09' W 119°12'0 0.0
2018-Feb-22 23:59N 34°09' W 119°12'0 0.0
2018-Feb-22 23:28N 34°09' W 119°12'0 0.0
2018-Feb-22 22:58N 34°09' W 119°12'0 0.0
2018-Feb-22 22:27N 34°09' W 119°12'0 0.0
2018-Feb-22 22:00N 34°09' W 119°12'0 0.0
2018-Feb-22 21:29N 34°09' W 119°12'0 0.0
2018-Feb-22 20:59N 34°09' W 119°12'0 0.0
2018-Feb-22 20:30N 34°09' W 119°12'0 0.0
2018-Feb-22 20:00N 34°09' W 119°12'0 0.0
2018-Feb-22 19:30N 34°09' W 119°12'0 0.0
2018-Feb-22 18:57N 34°09' W 119°12'0 0.0
2018-Feb-22 18:30N 34°09' W 119°12'0 0.0
2018-Feb-22 18:00N 34°09' W 119°12'0 0.0
2018-Feb-22 17:30N 34°09' W 119°12'0 0.0
2018-Feb-22 17:00N 34°09' W 119°12'0 0.0
2018-Feb-22 16:30N 34°09' W 119°12'0 0.0
2018-Feb-22 16:00N 34°09' W 119°12'0 0.0
2018-Feb-22 15:30N 34°09' W 119°12'0 0.0
2018-Feb-22 15:00N 34°09' W 119°12'0 0.0
2018-Feb-22 14:29N 34°09' W 119°12'0 0.0
2018-Feb-22 13:58N 34°09' W 119°12'0 0.0
2018-Feb-22 13:30N 34°09' W 119°12'0 0.0
2018-Feb-22 12:59N 34°09' W 119°12'0 0.0
2018-Feb-22 12:29N 34°09' W 119°12'0 0.0
2018-Feb-22 11:56N 34°09' W 119°12'0 0.0
2018-Feb-22 11:30N 34°09' W 119°12'0 0.0
2018-Feb-22 10:59N 34°09' W 119°12'0 0.0
2018-Feb-22 10:30N 34°09' W 119°12'0 0.0
2018-Feb-22 10:00N 34°09' W 119°12'0 0.0
2018-Feb-22 09:30N 34°09' W 119°12'0 0.0
2018-Feb-22 08:56N 34°09' W 119°12'0 0.0
2018-Feb-22 08:28N 34°09' W 119°12'0 0.0
2018-Feb-22 08:00N 34°09' W 119°12'0 0.0
2018-Feb-22 07:29N 34°09' W 119°12'0 0.0
2018-Feb-22 06:58N 34°09' W 119°12'0 0.0
2018-Feb-22 06:29N 34°09' W 119°12'0 0.0
2018-Feb-22 06:00N 34°09' W 119°12'0 0.0
2018-Feb-22 05:30N 34°09' W 119°12'0 0.0
2018-Feb-22 04:55N 34°09' W 119°12'0 0.0
2018-Feb-22 04:27N 34°09' W 119°12'0 0.0
2018-Feb-22 03:59N 34°09' W 119°12'0 0.0
2018-Feb-22 03:30N 34°09' W 119°12'0 0.0
2018-Feb-22 03:00N 34°09' W 119°12'0 0.0
2018-Feb-22 02:28N 34°09' W 119°12'0 0.0
2018-Feb-22 01:57N 34°09' W 119°12'0 0.0
2018-Feb-22 01:30N 34°09' W 119°12'0 0.0
2018-Feb-22 00:52N 34°09' W 119°12'0 0.0
2018-Feb-22 00:30N 34°09' W 119°12'0 0.0
2018-Feb-22 00:00N 34°09' W 119°12'0 0.0
2018-Feb-21 23:27N 34°09' W 119°12'0 0.0
2018-Feb-21 22:56N 34°09' W 119°12'0 0.0
2018-Feb-21 22:29N 34°09' W 119°12'0 0.0
2018-Feb-21 21:58N 34°09' W 119°12'0 0.0
2018-Feb-21 21:30N 34°09' W 119°12'0 0.0
2018-Feb-21 21:00N 34°09' W 119°12'0 0.0
2018-Feb-21 20:30N 34°09' W 119°12'0 0.3
2018-Feb-21 20:00N 34°09' W 119°13'3 4.9
2018-Feb-21 19:30N 34°07' W 119°14'4 8.3
2018-Feb-21 19:00N 34°03' W 119°14'5 8.9
2018-Feb-21 18:29N 33°58' W 119°14'4 7.7
2018-Feb-21 18:00N 33°54' W 119°14'4 7.3
2018-Feb-21 17:30N 33°51' W 119°13'4 7.4
2018-Feb-21 16:59N 33°47' W 119°13'4 7.5
2018-Feb-21 16:30N 33°43' W 119°13'4 7.3
2018-Feb-21 16:00N 33°40' W 119°13'3 6.9
2018-Feb-21 15:30N 33°36' W 119°12'4 5.7
2018-Feb-21 14:43N 33°37' W 119°07'1 4.8
2018-Feb-21 14:30N 33°38' W 119°08'3 5.1
2018-Feb-21 14:00N 33°39' W 119°11'2 4.7
2018-Feb-21 13:30N 33°40' W 119°13'3 5.1
2018-Feb-21 13:00N 33°43' W 119°14'3 5.0
2018-Feb-21 12:30N 33°45' W 119°15'3 5.2
2018-Feb-21 12:00N 33°48' W 119°16'3 5.5
2018-Feb-21 11:30N 33°50' W 119°16'3 5.6
2018-Feb-21 11:00N 33°53' W 119°16'3 6.0
2018-Feb-21 10:30N 33°56' W 119°16'3 6.0
2018-Feb-21 10:00N 33°59' W 119°16'3 5.7
2018-Feb-21 09:30N 34°02' W 119°16'3 6.7
2018-Feb-21 09:00N 34°05' W 119°15'3 6.0
2018-Feb-21 08:30N 34°08' W 119°14'1 2.8
2018-Feb-21 08:00N 34°09' W 119°13'0 0.0
2018-Feb-21 07:28N 34°09' W 119°13'0 0.0
2018-Feb-21 06:58N 34°09' W 119°13'0 0.0
2018-Feb-21 06:30N 34°09' W 119°13'0 0.0
2018-Feb-21 05:56N 34°09' W 119°13'0 0.0
2018-Feb-21 05:26N 34°09' W 119°13'0 0.0
2018-Feb-21 05:00N 34°09' W 119°13'0 0.0
2018-Feb-21 04:29N 34°09' W 119°13'0 0.0
2018-Feb-21 04:00N 34°09' W 119°13'0 0.0
2018-Feb-21 03:28N 34°09' W 119°13'0 0.0
2018-Feb-21 03:00N 34°09' W 119°13'0 0.0
2018-Feb-21 02:30N 34°09' W 119°13'0 0.0
2018-Feb-21 02:00N 34°09' W 119°13'0 0.0
2018-Feb-21 01:25N 34°09' W 119°13'0 0.0
2018-Feb-21 00:59N 34°09' W 119°13'0 0.0
2018-Feb-21 00:30N 34°09' W 119°13'0 0.0
2018-Feb-21 00:00N 34°09' W 119°13'0 0.0
2018-Feb-20 23:27N 34°09' W 119°13'0 0.0
2018-Feb-20 23:00N 34°09' W 119°13'0 0.0
2018-Feb-20 22:30N 34°09' W 119°13'0 0.0
2018-Feb-20 22:00N 34°09' W 119°13'0 0.0
2018-Feb-20 21:24N 34°09' W 119°13'0 0.0
2018-Feb-20 21:00N 34°09' W 119°13'0 0.0
2018-Feb-20 20:30N 34°09' W 119°13'0 0.0
2018-Feb-20 20:00N 34°09' W 119°13'1 1.4
2018-Feb-20 19:30N 34°08' W 119°13'2 3.5
2018-Feb-20 19:00N 34°07' W 119°14'3 5.9
2018-Feb-20 18:30N 34°05' W 119°11'4 8.0
2018-Feb-20 18:00N 34°03' W 119°07'4 8.7
2018-Feb-20 17:30N 34°01' W 119°03'5 9.3
2018-Feb-20 17:00N 33°58' W 118°58'5 9.4
2018-Feb-20 16:30N 33°56' W 118°53'5 9.8
2018-Feb-20 16:00N 33°54' W 118°48'30 8.9
2018-Feb-20 12:36N 33°44' W 118°13'1 7.1
2018-Feb-20 12:28N 33°45' W 118°13'1 1.6
2018-Feb-20 11:58N 33°46' W 118°13'  
2018-Feb-16 22:30N 33°46' W 118°13'0 0.1
2018-Feb-16 22:00N 33°46' W 118°13'0 0.0
2018-Feb-16 02:07N 33°46' W 118°13'0 0.1
2018-Feb-16 02:00N 33°46' W 118°13'2 4.9
2018-Feb-16 01:30N 33°44' W 118°13'2 4.1
2018-Feb-16 01:00N 33°44' W 118°16'0 0.9
2018-Feb-16 00:30N 33°44' W 118°16'2 4.3
2018-Feb-16 00:00N 33°42' W 118°15'4 7.1
2018-Feb-15 23:30N 33°41' W 118°19'4 7.9
2018-Feb-15 23:00N 33°43' W 118°24'4 7.8
2018-Feb-15 22:31N 33°44' W 118°28'4 7.8
2018-Feb-15 21:58N 33°46' W 118°33'4 8.0
2018-Feb-15 21:30N 33°48' W 118°36'4 8.0
2018-Feb-15 21:00N 33°50' W 118°41'4 7.8
2018-Feb-15 20:28N 33°52' W 118°45'3 7.6
2018-Feb-15 20:01N 33°54' W 118°49'4 7.5
2018-Feb-15 19:28N 33°56' W 118°53'3 7.4
2018-Feb-15 19:00N 33°57' W 118°57'4 7.6
2018-Feb-15 18:30N 33°59' W 119°01'4 7.6
2018-Feb-15 18:01N 34°01' W 119°05'4 7.5
2018-Feb-15 17:29N 34°03' W 119°09'4 7.3
2018-Feb-15 17:00N 34°05' W 119°12'3 6.1
2018-Feb-15 16:31N 34°08' W 119°13'1 2.6
2018-Feb-15 15:57N 34°09' W 119°13'0 0.0
2018-Feb-15 15:30N 34°09' W 119°13'0 0.0
2018-Feb-15 14:59N 34°09' W 119°13'0 0.0
2018-Feb-15 14:28N 34°09' W 119°13'0 0.0
2018-Feb-15 13:59N 34°09' W 119°13'0 0.0
2018-Feb-15 13:30N 34°09' W 119°13'0 0.0
2018-Feb-15 12:59N 34°09' W 119°13'0 0.0
2018-Feb-15 12:30N 34°09' W 119°13'0 0.0
2018-Feb-15 12:00N 34°09' W 119°13'0 0.0
2018-Feb-15 11:30N 34°09' W 119°13'0 0.0
2018-Feb-15 10:57N 34°09' W 119°13'0 0.0
2018-Feb-15 10:28N 34°09' W 119°13'0 0.0
2018-Feb-15 09:55N 34°09' W 119°13'0 0.0
2018-Feb-15 09:30N 34°09' W 119°13'0 0.0
2018-Feb-15 08:57N 34°09' W 119°13'0 0.0
2018-Feb-15 08:30N 34°09' W 119°13'0 0.0
2018-Feb-15 07:57N 34°09' W 119°13'0 0.0
2018-Feb-15 07:28N 34°09' W 119°13'0 0.0
2018-Feb-15 07:01N 34°09' W 119°13'0 0.0
2018-Feb-15 06:23N 34°09' W 119°13'0 0.0
2018-Feb-15 06:00N 34°09' W 119°13'0 0.0
2018-Feb-15 05:28N 34°09' W 119°13'0 0.0
2018-Feb-15 04:59N 34°09' W 119°13'0 0.0
2018-Feb-15 04:29N 34°09' W 119°13'0 0.0
2018-Feb-15 04:00N 34°09' W 119°13'0 0.0
2018-Feb-15 03:30N 34°09' W 119°13'0 0.0
2018-Feb-15 02:59N 34°09' W 119°13'0 0.0
2018-Feb-15 02:30N 34°09' W 119°13'0 0.0
2018-Feb-15 01:58N 34°09' W 119°13'0 0.0
2018-Feb-15 01:30N 34°09' W 119°13'0 0.4
2018-Feb-15 00:59N 34°09' W 119°12'2 4.7
2018-Feb-15 00:31N 34°07' W 119°14'4 7.1
2018-Feb-15 00:00N 34°03' W 119°14'  
Track history (hours):
 
Tides and Currents Weather Stations Pressure Air Temp Water Temp Dewpoint Dewpoint Depression Visibility Wind Speed Wind Dir Waves Ship Positions

H.m. Hidalgo

Owner: PACIFIC TUGBOAT SERVICE INC, SAN DIEGO, CA. More information available from US FCC via Universal Licensing System and Coast Guard Vessel Documentation Center.

Last reported at 2018-Feb-25 00:00 UTC. Time now 2018-Feb-25 00:01 UTC.
Position N 34°09' W 119°12'.

Length 25 m; draft 4 m.

Type: Tow > 200 m length. MMSI: 366892180.

Date/timePositionNaut miles runAvg speedWind from/ knotsBaromVisibWave heightAir tempDewpointWater temp
2018-Feb-25 00:00N 34°09' W 119°12'0 0.1
2018-Feb-24 23:29N 34°09' W 119°12'1 2.6
2018-Feb-24 23:00N 34°08' W 119°13'3 7.1
2018-Feb-24 22:30N 34°05' W 119°14'4 8.5
2018-Feb-24 22:00N 34°00' W 119°14'4 8.3
2018-Feb-24 21:30N 33°56' W 119°14'4 8.5
2018-Feb-24 21:00N 33°52' W 119°15'4 8.8
2018-Feb-24 20:30N 33°48' W 119°15'5 9.0
2018-Feb-24 20:00N 33°43' W 119°15'4 7.9
2018-Feb-24 19:31N 33°39' W 119°16'2 3.1
2018-Feb-24 19:00N 33°38' W 119°15'0 0.4
2018-Feb-24 18:30N 33°38' W 119°15'0 0.3
2018-Feb-24 18:00N 33°38' W 119°15'0 0.1
2018-Feb-24 17:30N 33°38' W 119°15'0 0.4
2018-Feb-24 17:00N 33°38' W 119°15'0 1.0
2018-Feb-24 16:30N 33°38' W 119°16'1 1.3
2018-Feb-24 15:55N 33°38' W 119°17'0 0.9
2018-Feb-24 15:27N 33°38' W 119°16'0 1.0
2018-Feb-24 15:00N 33°38' W 119°16'2 4.3
2018-Feb-24 14:26N 33°36' W 119°13'2 5.0
2018-Feb-24 14:00N 33°38' W 119°15'3 5.1
2018-Feb-24 13:30N 33°39' W 119°18'3 4.7
2018-Feb-24 12:56N 33°42' W 119°19'2 5.6
2018-Feb-24 12:30N 33°44' W 119°19'3 5.8
2018-Feb-24 12:00N 33°47' W 119°18'3 5.9
2018-Feb-24 11:30N 33°50' W 119°17'3 6.0
2018-Feb-24 11:00N 33°53' W 119°17'3 5.9
2018-Feb-24 10:30N 33°56' W 119°16'3 5.8
2018-Feb-24 10:00N 33°58' W 119°16'3 5.7
2018-Feb-24 09:30N 34°01' W 119°15'3 6.7
2018-Feb-24 09:00N 34°05' W 119°15'4 7.1
2018-Feb-24 08:30N 34°08' W 119°13'1 2.7
2018-Feb-24 08:00N 34°09' W 119°12'0 0.0
2018-Feb-24 07:29N 34°09' W 119°12'0 0.0
2018-Feb-24 06:57N 34°09' W 119°12'0 0.0
2018-Feb-24 06:30N 34°09' W 119°12'0 0.0
2018-Feb-24 06:00N 34°09' W 119°12'0 0.0
2018-Feb-24 05:29N 34°09' W 119°12'0 0.0
2018-Feb-24 04:56N 34°09' W 119°12'0 0.0
2018-Feb-24 04:22N 34°09' W 119°12'0 0.0
2018-Feb-24 03:59N 34°09' W 119°12'0 0.0
2018-Feb-24 03:30N 34°09' W 119°12'0 0.0
2018-Feb-24 02:58N 34°09' W 119°12'0 0.0
2018-Feb-24 02:29N 34°09' W 119°12'0 0.0
2018-Feb-24 01:59N 34°09' W 119°12'0 0.0
2018-Feb-24 01:28N 34°09' W 119°12'0 0.0
2018-Feb-24 00:58N 34°09' W 119°12'0 0.0
2018-Feb-24 00:27N 34°09' W 119°12'0 0.0
2018-Feb-24 00:00N 34°09' W 119°12'0 0.0
2018-Feb-23 23:30N 34°09' W 119°12'0 0.0
2018-Feb-23 22:59N 34°09' W 119°12'0 0.0
2018-Feb-23 22:29N 34°09' W 119°12'0 0.0
2018-Feb-23 21:57N 34°09' W 119°12'0 0.0
2018-Feb-23 21:30N 34°09' W 119°12'0 0.0
2018-Feb-23 20:53N 34°09' W 119°12'0 0.0
2018-Feb-23 20:30N 34°09' W 119°12'0 0.0
2018-Feb-23 20:00N 34°09' W 119°12'0 0.0
2018-Feb-23 19:30N 34°09' W 119°12'0 0.0
2018-Feb-23 19:00N 34°09' W 119°12'0 0.0
2018-Feb-23 18:30N 34°09' W 119°12'0 0.0
2018-Feb-23 18:00N 34°09' W 119°12'0 0.0
2018-Feb-23 17:30N 34°09' W 119°12'0 0.1
2018-Feb-23 16:59N 34°09' W 119°12'0 0.1
2018-Feb-23 16:30N 34°09' W 119°12'0 0.0
2018-Feb-23 15:55N 34°09' W 119°12'0 0.0
2018-Feb-23 15:25N 34°09' W 119°12'0 0.1
2018-Feb-23 14:59N 34°09' W 119°12'0 0.0
2018-Feb-23 14:30N 34°09' W 119°12'0 0.0
2018-Feb-23 13:55N 34°09' W 119°12'0 0.0
2018-Feb-23 13:28N 34°09' W 119°12'0 0.0
2018-Feb-23 12:59N 34°09' W 119°12'0 0.0
2018-Feb-23 12:28N 34°09' W 119°12'0 0.0
2018-Feb-23 12:00N 34°09' W 119°12'0 0.0
2018-Feb-23 11:27N 34°09' W 119°12'0 0.0
2018-Feb-23 11:00N 34°09' W 119°12'0 0.0
2018-Feb-23 10:30N 34°09' W 119°12'0 0.0
2018-Feb-23 10:00N 34°09' W 119°12'0 0.0
2018-Feb-23 09:30N 34°09' W 119°12'0 0.0
2018-Feb-23 09:00N 34°09' W 119°12'0 0.0
2018-Feb-23 08:29N 34°09' W 119°12'0 0.0
2018-Feb-23 07:59N 34°09' W 119°12'0 0.0
2018-Feb-23 07:30N 34°09' W 119°12'0 0.0
2018-Feb-23 07:00N 34°09' W 119°12'0 0.0
2018-Feb-23 06:27N 34°09' W 119°12'0 0.0
2018-Feb-23 05:57N 34°09' W 119°12'0 0.0
2018-Feb-23 05:30N 34°09' W 119°12'0 0.0
2018-Feb-23 05:00N 34°09' W 119°12'0 0.0
2018-Feb-23 04:28N 34°09' W 119°12'0 0.0
2018-Feb-23 03:53N 34°09' W 119°12'0 0.0
2018-Feb-23 03:30N 34°09' W 119°12'0 0.0
2018-Feb-23 02:58N 34°09' W 119°12'0 0.0
2018-Feb-23 02:28N 34°09' W 119°12'0 0.0
2018-Feb-23 01:56N 34°09' W 119°12'0 0.0
2018-Feb-23 01:28N 34°09' W 119°12'0 0.0
2018-Feb-23 00:59N 34°09' W 119°12'0 0.0
2018-Feb-23 00:30N 34°09' W 119°12'0 0.0
2018-Feb-22 23:59N 34°09' W 119°12'0 0.0
2018-Feb-22 23:28N 34°09' W 119°12'0 0.0
2018-Feb-22 22:58N 34°09' W 119°12'0 0.0
2018-Feb-22 22:27N 34°09' W 119°12'0 0.0
2018-Feb-22 22:00N 34°09' W 119°12'0 0.0
2018-Feb-22 21:29N 34°09' W 119°12'0 0.0
2018-Feb-22 20:59N 34°09' W 119°12'0 0.0
2018-Feb-22 20:30N 34°09' W 119°12'0 0.0
2018-Feb-22 20:00N 34°09' W 119°12'0 0.0
2018-Feb-22 19:30N 34°09' W 119°12'0 0.0
2018-Feb-22 18:57N 34°09' W 119°12'0 0.0
2018-Feb-22 18:30N 34°09' W 119°12'0 0.0
2018-Feb-22 18:00N 34°09' W 119°12'0 0.0
2018-Feb-22 17:30N 34°09' W 119°12'0 0.0
2018-Feb-22 17:00N 34°09' W 119°12'0 0.0
2018-Feb-22 16:30N 34°09' W 119°12'0 0.0
2018-Feb-22 16:00N 34°09' W 119°12'0 0.0
2018-Feb-22 15:30N 34°09' W 119°12'0 0.0
2018-Feb-22 15:00N 34°09' W 119°12'0 0.0
2018-Feb-22 14:29N 34°09' W 119°12'0 0.0
2018-Feb-22 13:58N 34°09' W 119°12'0 0.0
2018-Feb-22 13:30N 34°09' W 119°12'0 0.0
2018-Feb-22 12:59N 34°09' W 119°12'0 0.0
2018-Feb-22 12:29N 34°09' W 119°12'0 0.0
2018-Feb-22 11:56N 34°09' W 119°12'0 0.0
2018-Feb-22 11:30N 34°09' W 119°12'0 0.0
2018-Feb-22 10:59N 34°09' W 119°12'0 0.0
2018-Feb-22 10:30N 34°09' W 119°12'0 0.0
2018-Feb-22 10:00N 34°09' W 119°12'0 0.0
2018-Feb-22 09:30N 34°09' W 119°12'0 0.0
2018-Feb-22 08:56N 34°09' W 119°12'0 0.0
2018-Feb-22 08:28N 34°09' W 119°12'0 0.0
2018-Feb-22 08:00N 34°09' W 119°12'0 0.0
2018-Feb-22 07:29N 34°09' W 119°12'0 0.0
2018-Feb-22 06:58N 34°09' W 119°12'0 0.0
2018-Feb-22 06:29N 34°09' W 119°12'0 0.0
2018-Feb-22 06:00N 34°09' W 119°12'0 0.0
2018-Feb-22 05:30N 34°09' W 119°12'0 0.0
2018-Feb-22 04:55N 34°09' W 119°12'0 0.0
2018-Feb-22 04:27N 34°09' W 119°12'0 0.0
2018-Feb-22 03:59N 34°09' W 119°12'0 0.0
2018-Feb-22 03:30N 34°09' W 119°12'0 0.0
2018-Feb-22 03:00N 34°09' W 119°12'0 0.0
2018-Feb-22 02:28N 34°09' W 119°12'0 0.0
2018-Feb-22 01:57N 34°09' W 119°12'0 0.0
2018-Feb-22 01:30N 34°09' W 119°12'0 0.0
2018-Feb-22 00:52N 34°09' W 119°12'0 0.0
2018-Feb-22 00:30N 34°09' W 119°12'0 0.0
2018-Feb-22 00:00N 34°09' W 119°12'0 0.0
2018-Feb-21 23:27N 34°09' W 119°12'0 0.0
2018-Feb-21 22:56N 34°09' W 119°12'0 0.0
2018-Feb-21 22:29N 34°09' W 119°12'0 0.0
2018-Feb-21 21:58N 34°09' W 119°12'0 0.0
2018-Feb-21 21:30N 34°09' W 119°12'0 0.0
2018-Feb-21 21:00N 34°09' W 119°12'0 0.0
2018-Feb-21 20:30N 34°09' W 119°12'0 0.3
2018-Feb-21 20:00N 34°09' W 119°13'3 4.9
2018-Feb-21 19:30N 34°07' W 119°14'4 8.3
2018-Feb-21 19:00N 34°03' W 119°14'5 8.9
2018-Feb-21 18:29N 33°58' W 119°14'4 7.7
2018-Feb-21 18:00N 33°54' W 119°14'4 7.3
2018-Feb-21 17:30N 33°51' W 119°13'4 7.4
2018-Feb-21 16:59N 33°47' W 119°13'4 7.5
2018-Feb-21 16:30N 33°43' W 119°13'4 7.3
2018-Feb-21 16:00N 33°40' W 119°13'3 6.9
2018-Feb-21 15:30N 33°36' W 119°12'4 5.7
2018-Feb-21 14:43N 33°37' W 119°07'1 4.8
2018-Feb-21 14:30N 33°38' W 119°08'3 5.1
2018-Feb-21 14:00N 33°39' W 119°11'2 4.7
2018-Feb-21 13:30N 33°40' W 119°13'3 5.1
2018-Feb-21 13:00N 33°43' W 119°14'3 5.0
2018-Feb-21 12:30N 33°45' W 119°15'3 5.2
2018-Feb-21 12:00N 33°48' W 119°16'3 5.5
2018-Feb-21 11:30N 33°50' W 119°16'3 5.6
2018-Feb-21 11:00N 33°53' W 119°16'3 6.0
2018-Feb-21 10:30N 33°56' W 119°16'3 6.0
2018-Feb-21 10:00N 33°59' W 119°16'3 5.7
2018-Feb-21 09:30N 34°02' W 119°16'3 6.7
2018-Feb-21 09:00N 34°05' W 119°15'3 6.0
2018-Feb-21 08:30N 34°08' W 119°14'1 2.8
2018-Feb-21 08:00N 34°09' W 119°13'0 0.0
2018-Feb-21 07:28N 34°09' W 119°13'0 0.0
2018-Feb-21 06:58N 34°09' W 119°13'0 0.0
2018-Feb-21 06:30N 34°09' W 119°13'0 0.0
2018-Feb-21 05:56N 34°09' W 119°13'0 0.0
2018-Feb-21 05:26N 34°09' W 119°13'0 0.0
2018-Feb-21 05:00N 34°09' W 119°13'0 0.0
2018-Feb-21 04:29N 34°09' W 119°13'0 0.0
2018-Feb-21 04:00N 34°09' W 119°13'0 0.0
2018-Feb-21 03:28N 34°09' W 119°13'0 0.0
2018-Feb-21 03:00N 34°09' W 119°13'0 0.0
2018-Feb-21 02:30N 34°09' W 119°13'0 0.0
2018-Feb-21 02:00N 34°09' W 119°13'0 0.0
2018-Feb-21 01:25N 34°09' W 119°13'0 0.0
2018-Feb-21 00:59N 34°09' W 119°13'0 0.0
2018-Feb-21 00:30N 34°09' W 119°13'0 0.0
2018-Feb-21 00:00N 34°09' W 119°13'0 0.0
2018-Feb-20 23:27N 34°09' W 119°13'0 0.0
2018-Feb-20 23:00N 34°09' W 119°13'0 0.0
2018-Feb-20 22:30N 34°09' W 119°13'0 0.0
2018-Feb-20 22:00N 34°09' W 119°13'0 0.0
2018-Feb-20 21:24N 34°09' W 119°13'0 0.0
2018-Feb-20 21:00N 34°09' W 119°13'0 0.0
2018-Feb-20 20:30N 34°09' W 119°13'0 0.0
2018-Feb-20 20:00N 34°09' W 119°13'1 1.4
2018-Feb-20 19:30N 34°08' W 119°13'2 3.5
2018-Feb-20 19:00N 34°07' W 119°14'3 5.9
2018-Feb-20 18:30N 34°05' W 119°11'4 8.0
2018-Feb-20 18:00N 34°03' W 119°07'4 8.7
2018-Feb-20 17:30N 34°01' W 119°03'5 9.3
2018-Feb-20 17:00N 33°58' W 118°58'5 9.4
2018-Feb-20 16:30N 33°56' W 118°53'5 9.8
2018-Feb-20 16:00N 33°54' W 118°48'30 8.9
2018-Feb-20 12:36N 33°44' W 118°13'1 7.1
2018-Feb-20 12:28N 33°45' W 118°13'1 1.6
2018-Feb-20 11:58N 33°46' W 118°13'  
2018-Feb-16 22:30N 33°46' W 118°13'0 0.1
2018-Feb-16 22:00N 33°46' W 118°13'0 0.0
2018-Feb-16 02:07N 33°46' W 118°13'0 0.1
2018-Feb-16 02:00N 33°46' W 118°13'2 4.9
2018-Feb-16 01:30N 33°44' W 118°13'2 4.1
2018-Feb-16 01:00N 33°44' W 118°16'0 0.9
2018-Feb-16 00:30N 33°44' W 118°16'2 4.3
2018-Feb-16 00:00N 33°42' W 118°15'4 7.1
2018-Feb-15 23:30N 33°41' W 118°19'4 7.9
2018-Feb-15 23:00N 33°43' W 118°24'4 7.8
2018-Feb-15 22:31N 33°44' W 118°28'4 7.8
2018-Feb-15 21:58N 33°46' W 118°33'4 8.0
2018-Feb-15 21:30N 33°48' W 118°36'4 8.0
2018-Feb-15 21:00N 33°50' W 118°41'4 7.8
2018-Feb-15 20:28N 33°52' W 118°45'3 7.6
2018-Feb-15 20:01N 33°54' W 118°49'4 7.5
2018-Feb-15 19:28N 33°56' W 118°53'3 7.4
2018-Feb-15 19:00N 33°57' W 118°57'4 7.6
2018-Feb-15 18:30N 33°59' W 119°01'4 7.6
2018-Feb-15 18:01N 34°01' W 119°05'4 7.5
2018-Feb-15 17:29N 34°03' W 119°09'4 7.3
2018-Feb-15 17:00N 34°05' W 119°12'3 6.1
2018-Feb-15 16:31N 34°08' W 119°13'1 2.6
2018-Feb-15 15:57N 34°09' W 119°13'0 0.0
2018-Feb-15 15:30N 34°09' W 119°13'0 0.0
2018-Feb-15 14:59N 34°09' W 119°13'0 0.0
2018-Feb-15 14:28N 34°09' W 119°13'0 0.0
2018-Feb-15 13:59N 34°09' W 119°13'0 0.0
2018-Feb-15 13:30N 34°09' W 119°13'0 0.0
2018-Feb-15 12:59N 34°09' W 119°13'0 0.0
2018-Feb-15 12:30N 34°09' W 119°13'0 0.0
2018-Feb-15 12:00N 34°09' W 119°13'0 0.0
2018-Feb-15 11:30N 34°09' W 119°13'0 0.0
2018-Feb-15 10:57N 34°09' W 119°13'0 0.0
2018-Feb-15 10:28N 34°09' W 119°13'0 0.0
2018-Feb-15 09:55N 34°09' W 119°13'0 0.0
2018-Feb-15 09:30N 34°09' W 119°13'0 0.0
2018-Feb-15 08:57N 34°09' W 119°13'0 0.0
2018-Feb-15 08:30N 34°09' W 119°13'0 0.0
2018-Feb-15 07:57N 34°09' W 119°13'0 0.0
2018-Feb-15 07:28N 34°09' W 119°13'0 0.0
2018-Feb-15 07:01N 34°09' W 119°13'0 0.0
2018-Feb-15 06:23N 34°09' W 119°13'0 0.0
2018-Feb-15 06:00N 34°09' W 119°13'0 0.0
2018-Feb-15 05:28N 34°09' W 119°13'0 0.0
2018-Feb-15 04:59N 34°09' W 119°13'0 0.0
2018-Feb-15 04:29N 34°09' W 119°13'0 0.0
2018-Feb-15 04:00N 34°09' W 119°13'0 0.0
2018-Feb-15 03:30N 34°09' W 119°13'0 0.0
2018-Feb-15 02:59N 34°09' W 119°13'0 0.0
2018-Feb-15 02:30N 34°09' W 119°13'0 0.0
2018-Feb-15 01:58N 34°09' W 119°13'0 0.0
2018-Feb-15 01:30N 34°09' W 119°13'0 0.4
2018-Feb-15 00:59N 34°09' W 119°12'2 4.7
2018-Feb-15 00:31N 34°07' W 119°14'4 7.1
2018-Feb-15 00:00N 34°03' W 119°14'  

Dump ship's entire track history